Time;durP1;ratioP1;P1;durP2;ratioP2;P2;SDS_P1;SDS_P2;PMS_P1;PMS_P2;Temp;Humidity;BMP_temperature;BMP_pressure;BME280_temperature;BME280_humidity;BME280_pressure;Samples;Min_cycle;Max_cycle;Signal;HPM_P1;HPM_P2
2023/04/01 00:00:53;;;;;;;;;;;11.60;99.90;;;;;;5072361;28;19944;-67
2023/04/01 00:03:19;;;;;;;;;;;11.60;99.90;;;;;;5061788;28;20347;-66
2023/04/01 00:05:45;;;;;;;;;;;11.60;99.90;;;;;;5057724;28;20388;-66
2023/04/01 00:08:11;;;;;;;;;;;11.60;99.90;;;;;;5062024;28;19912;-66
2023/04/01 00:10:37;;;;;;;;;;;11.60;99.90;;;;;;5058000;28;19913;-66
2023/04/01 00:13:02;;;;;;;;;;;11.60;99.90;;;;;;5061568;28;19917;-65
2023/04/01 00:15:28;;;;;;;;;;;11.60;99.90;;;;;;5058516;28;19913;-66
2023/04/01 00:17:54;;;;;;;;;;;11.60;99.90;;;;;;5056358;28;19987;-64
2023/04/01 00:20:19;;;;;;;;;;;11.70;99.90;;;;;;5053732;28;19923;-65
2023/04/01 00:22:45;;;;;;;;;;;11.70;99.90;;;;;;5057493;28;19912;-64
2023/04/01 00:25:11;;;;;;;;;;;11.70;99.90;;;;;;5056364;28;19921;-66
2023/04/01 00:27:36;;;;;;;;;;;11.60;99.90;;;;;;5055318;28;20351;-65
2023/04/01 00:30:02;;;;;;;;;;;11.60;99.90;;;;;;5059374;28;19912;-65
2023/04/01 00:32:28;;;;;;;;;;;11.60;99.90;;;;;;5059986;28;20258;-65
2023/04/01 00:34:54;;;;;;;;;;;11.60;99.90;;;;;;5038719;28;19959;-65
2023/04/01 00:37:20;;;;;;;;;;;11.60;99.90;;;;;;5067445;28;19951;-65
2023/04/01 00:39:46;;;;;;;;;;;11.60;99.90;;;;;;5044872;28;19913;-65
2023/04/01 00:42:13;;;;;;;;;;;11.60;99.90;;;;;;5052903;28;19912;-64
2023/04/01 00:44:39;;;;;;;;;;;11.60;99.90;;;;;;5052939;28;19920;-65
2023/04/01 00:47:05;;;;;;;;;;;11.60;99.90;;;;;;5055252;28;20268;-66
2023/04/01 00:49:32;;;;;;;;;;;11.60;99.90;;;;;;5060935;28;20370;-65
2023/04/01 00:51:59;;;;;;;;;;;11.60;99.90;;;;;;5071992;28;19919;-65
2023/04/01 00:54:26;;;;;;;;;;;11.60;99.90;;;;;;5060531;28;20015;-65
2023/04/01 00:56:57;;;;;;;;;;;11.60;99.90;;;;;;5063188;28;19913;-66
2023/04/01 00:59:26;;;;;;;;;;;11.60;99.90;;;;;;5062052;28;19968;-65
2023/04/01 01:01:51;;;;;;;;;;;11.60;99.90;;;;;;5070165;28;19959;-65
2023/04/01 01:04:22;;;;;;;;;;;11.60;99.90;;;;;;5048605;28;19967;-65
2023/04/01 01:06:50;;;;;;;;;;;11.60;99.90;;;;;;5071579;28;19912;-65
2023/04/01 01:09:28;;;;;;;;;;;11.60;99.90;;;;;;5062149;28;20368;-66
2023/04/01 01:12:26;;;;;;;;;;;11.50;99.90;;;;;;5070461;28;20063;-66
2023/04/01 01:14:51;;;;;;;;;;;11.60;99.90;;;;;;5042121;28;19913;-66
2023/04/01 01:17:20;;;;;;;;;;;11.50;99.90;;;;;;5068603;28;19913;-65
2023/04/01 01:22:58;;;;;;;;;;;11.50;99.90;;;;;;5065016;28;19920;-65
2023/04/01 01:25:29;;;;;;;;;;;11.50;99.90;;;;;;5065205;28;19924;-66
2023/04/01 01:28:12;;;;;;;;;;;11.50;99.90;;;;;;5068907;28;19913;-66
2023/04/01 01:30:41;;;;;;;;;;;11.40;99.90;;;;;;5051351;28;19916;-65
2023/04/01 01:33:10;;;;;;;;;;;11.50;99.90;;;;;;5070421;28;19947;-65
2023/04/01 01:35:38;;;;;;;;;;;11.50;99.90;;;;;;5051030;28;19913;-64
2023/04/01 01:38:05;;;;;;;;;;;11.50;99.90;;;;;;5070193;28;19954;-66
2023/04/01 01:40:32;;;;;;;;;;;11.50;99.90;;;;;;5069411;28;20468;-64
2023/04/01 01:43:00;;;;;;;;;;;11.50;99.90;;;;;;5066914;28;19912;-65
2023/04/01 01:45:27;;;;;;;;;;;11.50;99.90;;;;;;5069195;28;19962;-66
2023/04/01 01:47:54;;;;;;;;;;;11.50;99.90;;;;;;5070527;28;20431;-65
2023/04/01 01:50:21;;;;;;;;;;;11.50;99.90;;;;;;5066957;28;19920;-65
2023/04/01 01:52:46;;;;;;;;;;;11.40;99.90;;;;;;5049134;28;19912;-66
2023/04/01 01:55:45;;;;;;;;;;;11.40;99.90;;;;;;5068737;28;20284;-65
2023/04/01 01:58:16;;;;;;;;;;;11.40;99.90;;;;;;5021455;28;20377;-64
2023/04/01 02:00:44;;;;;;;;;;;11.40;99.90;;;;;;5070230;28;19975;-65
2023/04/01 02:03:11;;;;;;;;;;;11.40;99.90;;;;;;5048601;28;19952;-65
2023/04/01 02:05:37;;;;;;;;;;;11.40;99.90;;;;;;5070502;28;20018;-65
2023/04/01 02:08:28;;;;;;;;;;;11.40;99.90;;;;;;5052272;28;20367;-64
2023/04/01 02:11:01;;;;;;;;;;;11.40;99.90;;;;;;5046499;28;19919;-65
2023/04/01 02:13:30;;;;;;;;;;;11.30;99.90;;;;;;5062607;28;20272;-65
2023/04/01 02:15:59;;;;;;;;;;;11.30;99.90;;;;;;5073664;28;19912;-65
2023/04/01 02:18:24;;;;;;;;;;;11.40;99.90;;;;;;5061042;28;20283;-65
2023/04/01 02:20:51;;;;;;;;;;;11.40;99.90;;;;;;5069972;28;20011;-67
2023/04/01 02:23:16;;;;;;;;;;;11.40;99.90;;;;;;5061438;28;20410;-65
2023/04/01 02:25:42;;;;;;;;;;;11.40;99.90;;;;;;5070093;28;19912;-65
2023/04/01 02:28:09;;;;;;;;;;;11.40;99.90;;;;;;5065643;28;20352;-65
2023/04/01 02:30:36;;;;;;;;;;;11.40;99.90;;;;;;5052754;28;20275;-65
2023/04/01 02:33:02;;;;;;;;;;;11.40;99.90;;;;;;5066932;28;20033;-65
2023/04/01 02:35:28;;;;;;;;;;;11.30;99.90;;;;;;5059881;28;19913;-65
2023/04/01 02:37:54;;;;;;;;;;;11.30;99.90;;;;;;5061829;28;19912;-65
2023/04/01 02:40:20;;;;;;;;;;;11.40;99.90;;;;;;5059122;28;19916;-64
2023/04/01 02:42:45;;;;;;;;;;;11.40;99.90;;;;;;5063735;28;19912;-64
2023/04/01 02:45:11;;;;;;;;;;;11.40;99.90;;;;;;5069747;28;19920;-65
2023/04/01 02:47:37;;;;;;;;;;;11.40;99.90;;;;;;5054326;28;19959;-64
2023/04/01 02:50:03;;;;;;;;;;;11.40;99.90;;;;;;5061378;28;19960;-64
2023/04/01 02:52:29;;;;;;;;;;;11.40;99.90;;;;;;5057205;28;19995;-65
2023/04/01 02:54:55;;;;;;;;;;;11.40;99.90;;;;;;5057397;28;20272;-65
2023/04/01 02:57:21;;;;;;;;;;;11.40;99.90;;;;;;5049468;28;19920;-63
2023/04/01 02:59:47;;;;;;;;;;;11.40;99.90;;;;;;5069559;28;20383;-65
2023/04/01 03:02:12;;;;;;;;;;;11.50;99.90;;;;;;5060946;28;19912;-61
2023/04/01 03:04:38;;;;;;;;;;;11.40;99.90;;;;;;5056747;28;19920;-64
2023/04/01 03:07:03;;;;;;;;;;;11.40;99.90;;;;;;5060955;28;19913;-63
2023/04/01 03:09:30;;;;;;;;;;;11.40;99.90;;;;;;5067704;28;19919;-64
2023/04/01 03:11:55;;;;;;;;;;;11.40;99.90;;;;;;5062008;28;19913;-63
2023/04/01 03:14:21;;;;;;;;;;;11.40;99.90;;;;;;5070431;28;19912;-64
2023/04/01 03:16:47;;;;;;;;;;;11.40;99.90;;;;;;5074550;28;19958;-64
2023/04/01 03:19:12;;;;;;;;;;;11.40;99.90;;;;;;5066937;28;19920;-66
2023/04/01 03:21:38;;;;;;;;;;;11.40;99.90;;;;;;5069622;28;19913;-66
2023/04/01 03:24:04;;;;;;;;;;;11.40;99.90;;;;;;5069163;28;19947;-67
2023/04/01 03:26:29;;;;;;;;;;;11.30;99.90;;;;;;5067061;28;20011;-68
2023/04/01 03:28:55;;;;;;;;;;;11.40;99.90;;;;;;5068621;28;19919;-66
2023/04/01 03:31:21;;;;;;;;;;;11.40;99.90;;;;;;5061761;28;20413;-66
2023/04/01 03:33:47;;;;;;;;;;;11.40;99.90;;;;;;5051103;28;19912;-65
2023/04/01 03:36:12;;;;;;;;;;;11.30;99.90;;;;;;5067546;28;20299;-66
2023/04/01 03:38:40;;;;;;;;;;;11.30;99.90;;;;;;5069422;28;19912;-65
2023/04/01 03:41:05;;;;;;;;;;;11.30;99.90;;;;;;5066926;28;20269;-66
2023/04/01 03:43:32;;;;;;;;;;;11.30;99.90;;;;;;5061352;28;20394;-65
2023/04/01 03:45:58;;;;;;;;;;;11.40;99.90;;;;;;5065976;28;19913;-65
2023/04/01 03:48:24;;;;;;;;;;;11.30;99.90;;;;;;5066846;28;19922;-64
2023/04/01 03:50:49;;;;;;;;;;;11.40;99.90;;;;;;5069017;28;20007;-64
2023/04/01 03:53:15;;;;;;;;;;;11.40;99.90;;;;;;5062558;28;20014;-64
2023/04/01 03:55:41;;;;;;;;;;;11.40;99.90;;;;;;5072858;28;20335;-64
2023/04/01 03:58:07;;;;;;;;;;;11.40;99.90;;;;;;5072117;28;20363;-66
2023/04/01 04:00:33;;;;;;;;;;;11.40;99.90;;;;;;5071434;28;19916;-66
2023/04/01 04:02:59;;;;;;;;;;;11.40;99.90;;;;;;5064395;28;20376;-68
2023/04/01 04:05:25;;;;;;;;;;;11.40;99.90;;;;;;5062697;28;20427;-68
2023/04/01 04:07:50;;;;;;;;;;;11.40;99.90;;;;;;5072369;28;20000;-67
2023/04/01 04:10:16;;;;;;;;;;;11.40;99.90;;;;;;5053054;28;19947;-67
2023/04/01 04:12:42;;;;;;;;;;;11.40;99.90;;;;;;5053689;28;19947;-67
2023/04/01 04:15:08;;;;;;;;;;;11.30;99.90;;;;;;5075405;28;19912;-67
2023/04/01 04:17:33;;;;;;;;;;;11.40;99.90;;;;;;5070184;28;19913;-67
2023/04/01 04:19:59;;;;;;;;;;;11.40;99.90;;;;;;5072333;28;19935;-68
2023/04/01 04:22:25;;;;;;;;;;;11.40;99.90;;;;;;5070753;28;20394;-67
2023/04/01 04:24:50;;;;;;;;;;;11.40;99.90;;;;;;5071954;28;19921;-68
2023/04/01 04:27:16;;;;;;;;;;;11.40;99.90;;;;;;5068910;28;19912;-68
2023/04/01 04:29:41;;;;;;;;;;;11.40;99.90;;;;;;5066598;28;19913;-68
2023/04/01 04:32:07;;;;;;;;;;;11.40;99.90;;;;;;5070503;28;19913;-67
2023/04/01 04:34:33;;;;;;;;;;;11.40;99.90;;;;;;5070728;28;19912;-67
2023/04/01 04:36:58;;;;;;;;;;;11.40;99.90;;;;;;5072012;28;19920;-67
2023/04/01 04:39:24;;;;;;;;;;;11.30;99.90;;;;;;5052157;28;19912;-68
2023/04/01 04:41:49;;;;;;;;;;;11.30;99.90;;;;;;5069367;28;20003;-66
2023/04/01 04:44:15;;;;;;;;;;;11.30;99.90;;;;;;5059460;28;19924;-68
2023/04/01 04:46:40;;;;;;;;;;;11.30;99.90;;;;;;5071664;28;20014;-68
2023/04/01 04:49:06;;;;;;;;;;;11.40;99.90;;;;;;5071447;28;19966;-67
2023/04/01 04:51:35;;;;;;;;;;;11.30;99.90;;;;;;5070159;28;19916;-70
2023/04/01 04:54:02;;;;;;;;;;;11.30;99.90;;;;;;5064699;28;19919;-71
2023/04/01 04:56:27;;;;;;;;;;;11.40;99.90;;;;;;5068730;28;19912;-72
2023/04/01 04:58:53;;;;;;;;;;;11.30;99.90;;;;;;5070994;28;19961;-75
2023/04/01 05:01:19;;;;;;;;;;;11.30;99.90;;;;;;5067678;28;19919;-73
2023/04/01 05:03:44;;;;;;;;;;;11.30;99.90;;;;;;5069525;28;20557;-74
2023/04/01 05:06:12;;;;;;;;;;;11.30;99.90;;;;;;5069807;28;19931;-74
2023/04/01 05:08:39;;;;;;;;;;;11.30;99.90;;;;;;5071208;28;19963;-74
2023/04/01 05:11:06;;;;;;;;;;;11.30;99.90;;;;;;5070971;28;20028;-73
2023/04/01 05:13:32;;;;;;;;;;;11.30;99.90;;;;;;5066877;28;19916;-73
2023/04/01 05:15:58;;;;;;;;;;;11.30;99.90;;;;;;5070979;28;19920;-72
2023/04/01 05:18:23;;;;;;;;;;;11.30;99.90;;;;;;5059754;28;19924;-71
2023/04/01 05:20:51;;;;;;;;;;;11.30;99.90;;;;;;5071316;28;19979;-72
2023/04/01 05:23:16;;;;;;;;;;;11.20;99.90;;;;;;5067960;28;19912;-71
2023/04/01 05:25:42;;;;;;;;;;;11.20;99.90;;;;;;5070533;28;20272;-69
2023/04/01 05:28:08;;;;;;;;;;;11.20;99.90;;;;;;5070455;28;19920;-69
2023/04/01 05:30:34;;;;;;;;;;;11.20;99.90;;;;;;5066513;28;19919;-68
2023/04/01 05:32:59;;;;;;;;;;;11.30;99.90;;;;;;5070909;28;20019;-68
2023/04/01 05:35:25;;;;;;;;;;;11.20;99.90;;;;;;5068066;28;20331;-67
2023/04/01 05:37:51;;;;;;;;;;;11.20;99.90;;;;;;5071093;28;19920;-67
2023/04/01 05:40:16;;;;;;;;;;;11.20;99.90;;;;;;5069111;28;20299;-67
2023/04/01 05:42:42;;;;;;;;;;;11.20;99.90;;;;;;5063927;28;19919;-67
2023/04/01 05:45:08;;;;;;;;;;;11.30;99.90;;;;;;5068141;28;19920;-66
2023/04/01 05:47:34;;;;;;;;;;;11.20;99.90;;;;;;5068906;28;19921;-67
2023/04/01 05:49:59;;;;;;;;;;;11.30;99.90;;;;;;5069543;28;19975;-68
2023/04/01 05:52:25;;;;;;;;;;;11.40;99.90;;;;;;5067964;28;19912;-67
2023/04/01 05:54:51;;;;;;;;;;;11.40;99.90;;;;;;5069395;28;19975;-68
2023/04/01 05:57:16;;;;;;;;;;;11.30;99.90;;;;;;5064913;28;19989;-69
2023/04/01 05:59:42;;;;;;;;;;;11.30;99.90;;;;;;5041696;28;20249;-71
2023/04/01 06:02:08;;;;;;;;;;;11.30;99.90;;;;;;5067359;28;19940;-71
2023/04/01 06:04:36;;;;;;;;;;;11.30;99.90;;;;;;5049938;28;19920;-70
2023/04/01 06:07:05;;;;;;;;;;;11.30;99.90;;;;;;5068050;28;19912;-68
2023/04/01 06:09:31;;;;;;;;;;;11.40;99.90;;;;;;5059676;28;20031;-68
2023/04/01 06:12:05;;;;;;;;;;;11.30;99.90;;;;;;5067472;28;20007;-68
2023/04/01 06:14:31;;;;;;;;;;;11.30;99.90;;;;;;5066970;28;19913;-68
2023/04/01 06:16:56;;;;;;;;;;;11.30;99.90;;;;;;5063031;28;19920;-68
2023/04/01 06:19:22;;;;;;;;;;;11.30;99.90;;;;;;5067412;28;19913;-68
2023/04/01 06:21:51;;;;;;;;;;;11.30;99.90;;;;;;5069102;28;19919;-68
2023/04/01 06:24:19;;;;;;;;;;;11.40;99.90;;;;;;5055917;28;19916;-68
2023/04/01 06:27:01;;;;;;;;;;;11.40;99.90;;;;;;5061063;28;19913;-68
2023/04/01 06:29:44;;;;;;;;;;;11.30;99.90;;;;;;5060684;28;20390;-68
2023/04/01 06:32:13;;;;;;;;;;;11.40;99.90;;;;;;5063137;28;19985;-67
2023/04/01 06:34:39;;;;;;;;;;;11.40;99.90;;;;;;5061231;28;19913;-67
2023/04/01 06:37:07;;;;;;;;;;;11.50;99.90;;;;;;5061589;28;19923;-68
2023/04/01 06:39:33;;;;;;;;;;;11.50;99.90;;;;;;5065478;28;19927;-69
2023/04/01 06:42:01;;;;;;;;;;;11.50;99.90;;;;;;5068069;28;19912;-66
2023/04/01 06:44:45;;;;;;;;;;;11.50;99.90;;;;;;5067800;28;19959;-67
2023/04/01 06:47:14;;;;;;;;;;;11.50;99.90;;;;;;5056947;28;20271;-68
2023/04/01 06:49:39;;;;;;;;;;;11.60;99.90;;;;;;5001936;28;1899257;-69
2023/04/01 06:52:19;;;;;;;;;;;11.50;99.90;;;;;;5071437;28;19920;-69
2023/04/01 06:54:49;;;;;;;;;;;11.50;99.90;;;;;;5074785;28;19958;-68
2023/04/01 06:57:18;;;;;;;;;;;11.50;99.90;;;;;;5067342;28;20058;-68
2023/04/01 06:59:44;;;;;;;;;;;11.50;99.90;;;;;;5073533;28;20294;-68
2023/04/01 07:02:10;;;;;;;;;;;11.50;99.90;;;;;;5073378;28;19912;-68
2023/04/01 07:04:38;;;;;;;;;;;11.50;99.90;;;;;;5061283;28;20284;-68
2023/04/01 07:07:05;;;;;;;;;;;11.40;99.90;;;;;;5075221;28;19913;-68
2023/04/01 07:09:33;;;;;;;;;;;11.40;99.90;;;;;;5070154;28;19919;-68
2023/04/01 07:12:01;;;;;;;;;;;11.40;99.90;;;;;;5068558;28;19998;-66
2023/04/01 07:14:35;;;;;;;;;;;11.40;99.90;;;;;;5067092;28;20007;-67
2023/04/01 07:17:00;;;;;;;;;;;11.50;99.90;;;;;;5069561;28;19913;-69
2023/04/01 07:19:26;;;;;;;;;;;11.60;99.90;;;;;;5065118;28;19912;-66
2023/04/01 07:21:54;;;;;;;;;;;11.60;99.90;;;;;;5050654;28;19920;-67
2023/04/01 07:24:32;;;;;;;;;;;11.60;99.90;;;;;;5064145;28;19921;-68
2023/04/01 07:26:59;;;;;;;;;;;11.60;99.90;;;;;;5072348;28;19935;-66
2023/04/01 07:29:25;;;;;;;;;;;11.70;99.90;;;;;;5066684;28;19927;-67
2023/04/01 07:32:05;;;;;;;;;;;11.70;99.90;;;;;;5072845;28;19966;-67
2023/04/01 07:34:43;;;;;;;;;;;11.70;99.90;;;;;;5053272;28;19917;-67
2023/04/01 07:37:14;;;;;;;;;;;11.70;99.90;;;;;;5071185;28;20356;-67
2023/04/01 07:39:43;;;;;;;;;;;11.70;99.90;;;;;;5066369;28;20384;-67
2023/04/01 07:42:28;;;;;;;;;;;11.70;99.90;;;;;;5071022;28;19912;-66
2023/04/01 07:44:56;;;;;;;;;;;11.80;99.90;;;;;;5071264;28;19921;-67
2023/04/01 07:47:29;;;;;;;;;;;12.00;99.90;;;;;;5071154;28;19916;-67
2023/04/01 07:50:13;;;;;;;;;;;11.90;99.90;;;;;;5064360;28;19935;-65
2023/04/01 07:52:48;;;;;;;;;;;12.00;99.90;;;;;;5070071;28;19999;-66
2023/04/01 07:55:24;;;;;;;;;;;12.00;99.90;;;;;;5062168;28;19977;-67
2023/04/01 07:57:56;;;;;;;;;;;11.90;99.90;;;;;;5071950;28;19920;-66
2023/04/01 08:00:22;;;;;;;;;;;11.90;99.90;;;;;;5072401;28;19912;-66
2023/04/01 08:02:53;;;;;;;;;;;12.10;99.90;;;;;;5076086;28;19958;-66
2023/04/01 08:05:30;;;;;;;;;;;12.00;99.90;;;;;;5068175;28;19920;-65
2023/04/01 08:08:01;;;;;;;;;;;11.80;99.90;;;;;;5063940;28;20402;-66
2023/04/01 08:10:45;;;;;;;;;;;11.70;99.90;;;;;;5071924;28;20271;-65
2023/04/01 08:13:11;;;;;;;;;;;11.80;99.90;;;;;;5068983;28;19958;-67
2023/04/01 08:15:47;;;;;;;;;;;12.00;99.90;;;;;;5066384;28;19912;-66
2023/04/01 08:18:13;;;;;;;;;;;12.00;99.90;;;;;;5068424;28;20967;-66
2023/04/01 08:20:38;;;;;;;;;;;11.90;99.90;;;;;;5071786;28;19912;-65
2023/04/01 08:23:12;;;;;;;;;;;11.80;99.90;;;;;;5069527;28;20368;-65
2023/04/01 08:25:40;;;;;;;;;;;11.70;99.90;;;;;;5066852;28;20284;-65
2023/04/01 08:28:06;;;;;;;;;;;11.70;99.90;;;;;;5062483;28;19966;-65
2023/04/01 08:30:35;;;;;;;;;;;11.60;99.90;;;;;;5069298;28;19913;-65
2023/04/01 08:33:21;;;;;;;;;;;11.50;99.90;;;;;;5070393;28;19917;-65
2023/04/01 08:35:54;;;;;;;;;;;11.50;99.90;;;;;;5068127;28;19928;-66
2023/04/01 08:38:31;;;;;;;;;;;11.50;99.90;;;;;;5065829;28;19920;-65
2023/04/01 08:40:59;;;;;;;;;;;11.50;99.90;;;;;;5063865;28;19970;-64
2023/04/01 08:43:43;;;;;;;;;;;11.60;99.90;;;;;;5061804;28;19916;-64
2023/04/01 08:46:11;;;;;;;;;;;11.60;99.90;;;;;;5067012;28;19994;-65
2023/04/01 08:48:48;;;;;;;;;;;11.90;99.90;;;;;;5065670;28;20072;-64
2023/04/01 08:51:32;;;;;;;;;;;12.00;99.90;;;;;;5074350;28;19957;-64
2023/04/01 08:54:09;;;;;;;;;;;12.10;99.90;;;;;;5063030;28;20256;-65
2023/04/01 08:56:53;;;;;;;;;;;12.10;99.90;;;;;;5064026;28;19913;-65
2023/04/01 08:59:22;;;;;;;;;;;12.20;99.90;;;;;;5064255;28;20311;-64
2023/04/01 09:02:07;;;;;;;;;;;12.20;99.90;;;;;;5067244;28;19919;-65
2023/04/01 09:04:55;;;;;;;;;;;12.20;99.90;;;;;;5065736;28;20323;-66
2023/04/01 09:07:33;;;;;;;;;;;12.00;99.90;;;;;;5065198;28;19912;-65
2023/04/01 09:10:08;;;;;;;;;;;12.00;99.90;;;;;;5064752;28;19916;-64
2023/04/01 09:12:45;;;;;;;;;;;12.10;99.90;;;;;;5061348;28;19916;-64
2023/04/01 09:15:30;;;;;;;;;;;11.90;99.90;;;;;;5065249;28;19919;-66
2023/04/01 09:17:59;;;;;;;;;;;12.00;99.90;;;;;;5065440;28;19966;-65
2023/04/01 09:20:24;;;;;;;;;;;12.10;99.90;;;;;;5066613;28;19956;-65
2023/04/01 09:23:10;;;;;;;;;;;12.20;99.90;;;;;;5066745;28;20002;-65
2023/04/01 09:25:39;;;;;;;;;;;12.20;99.90;;;;;;5063168;28;19920;-66
2023/04/01 09:28:11;;;;;;;;;;;12.20;99.90;;;;;;5066355;28;19923;-65
2023/04/01 09:30:53;;;;;;;;;;;12.10;99.90;;;;;;5065815;28;19973;-65
2023/04/01 09:33:37;;;;;;;;;;;11.80;99.90;;;;;;5063585;28;19913;-64
2023/04/01 09:36:18;;;;;;;;;;;11.50;99.90;;;;;;5063631;28;19919;-64
2023/04/01 09:38:57;;;;;;;;;;;11.50;99.90;;;;;;5067100;28;19913;-64
2023/04/01 09:41:41;;;;;;;;;;;11.40;99.90;;;;;;5066324;28;20015;-65
2023/04/01 09:44:10;;;;;;;;;;;11.40;99.90;;;;;;5058607;28;19974;-64
2023/04/01 09:46:42;;;;;;;;;;;11.40;99.90;;;;;;5064800;28;19922;-65
2023/04/01 09:49:17;;;;;;;;;;;11.60;99.90;;;;;;5065725;28;19916;-65
2023/04/01 09:51:51;;;;;;;;;;;11.80;99.90;;;;;;5060022;28;20007;-65
2023/04/01 09:54:36;;;;;;;;;;;12.10;99.90;;;;;;5050260;28;19913;-64
2023/04/01 09:57:05;;;;;;;;;;;12.00;99.90;;;;;;5055980;28;20360;-63
2023/04/01 09:59:40;;;;;;;;;;;11.90;99.90;;;;;;5041232;28;20365;-64
2023/04/01 10:02:25;;;;;;;;;;;11.80;99.90;;;;;;5054928;28;20075;-65
2023/04/01 10:05:09;;;;;;;;;;;11.70;99.90;;;;;;5046832;28;20007;-64
2023/04/01 10:07:41;;;;;;;;;;;11.60;99.90;;;;;;5053789;28;19912;-64
2023/04/01 10:10:25;;;;;;;;;;;11.50;99.90;;;;;;5048319;28;19956;-64
2023/04/01 10:12:51;;;;;;;;;;;11.50;99.90;;;;;;5052152;28;19936;-64
2023/04/01 10:15:33;;;;;;;;;;;11.60;99.90;;;;;;5051665;28;20280;-64
2023/04/01 10:18:21;;;;;;;;;;;11.70;99.90;;;;;;5059368;28;19912;-64
2023/04/01 10:21:25;;;;;;;;;;;11.70;99.90;;;;;;5049937;28;19952;-65
2023/04/01 10:23:53;;;;;;;;;;;11.70;99.90;;;;;;4974297;28;21125;-64
2023/04/01 10:26:31;;;;;;;;;;;11.50;99.90;;;;;;4968093;28;20278;-64
2023/04/01 10:29:14;;;;;;;;;;;11.70;99.90;;;;;;4971788;28;20046;-64
2023/04/01 10:31:58;;;;;;;;;;;11.80;99.90;;;;;;4980488;28;19925;-64
2023/04/01 10:34:43;;;;;;;;;;;12.00;99.90;;;;;;4969078;28;19918;-64
2023/04/01 10:37:15;;;;;;;;;;;12.20;99.90;;;;;;4976075;28;20410;-64
2023/04/01 10:39:44;;;;;;;;;;;12.40;99.90;;;;;;4968954;28;19914;-65
2023/04/01 10:42:15;;;;;;;;;;;12.40;99.90;;;;;;4973222;28;19914;-64
2023/04/01 10:44:59;;;;;;;;;;;12.50;99.90;;;;;;4968866;28;19929;-64
2023/04/01 10:47:25;;;;;;;;;;;12.50;99.90;;;;;;4968571;28;19920;-66
2023/04/01 10:49:54;;;;;;;;;;;12.50;99.90;;;;;;4990139;28;19926;-66
2023/04/01 10:52:22;;;;;;;;;;;12.40;99.90;;;;;;4991665;28;19918;-65
2023/04/01 10:54:56;;;;;;;;;;;12.40;99.90;;;;;;5028856;28;20364;-65
2023/04/01 10:57:33;;;;;;;;;;;12.40;99.90;;;;;;5057665;28;19982;-64
2023/04/01 11:00:02;;;;;;;;;;;12.20;99.90;;;;;;5060086;28;19940;-65
2023/04/01 11:02:45;;;;;;;;;;;12.10;99.90;;;;;;5055159;28;19963;-65
2023/04/01 11:05:20;;;;;;;;;;;12.30;99.90;;;;;;5039279;28;19920;-64
2023/04/01 11:08:03;;;;;;;;;;;12.20;99.90;;;;;;5058493;28;19919;-64
2023/04/01 11:10:47;;;;;;;;;;;12.20;99.90;;;;;;5056113;28;19928;-64
2023/04/01 11:13:16;;;;;;;;;;;12.30;99.90;;;;;;5053395;28;19913;-64
2023/04/01 11:15:57;;;;;;;;;;;12.30;99.90;;;;;;5061458;28;19967;-65
2023/04/01 11:18:41;;;;;;;;;;;12.40;99.90;;;;;;5048818;28;19912;-64
2023/04/01 11:21:10;;;;;;;;;;;12.50;99.90;;;;;;5056174;28;19912;-65
2023/04/01 11:23:35;;;;;;;;;;;12.60;99.90;;;;;;5050872;28;19913;-65
2023/04/01 11:26:06;;;;;;;;;;;12.70;99.90;;;;;;5054656;28;19924;-63
2023/04/01 11:29:05;;;;;;;;;;;12.70;99.90;;;;;;5051336;28;19916;-65
2023/04/01 11:31:46;;;;;;;;;;;12.90;99.90;;;;;;4980323;28;20392;-64
2023/04/01 11:34:11;;;;;;;;;;;13.00;99.90;;;;;;4983448;28;19922;-65
2023/04/01 11:36:42;;;;;;;;;;;13.40;99.90;;;;;;4966489;28;20030;-63
2023/04/01 11:39:25;;;;;;;;;;;13.80;99.90;;;;;;4984293;28;19913;-64
2023/04/01 11:41:50;;;;;;;;;;;13.80;99.90;;;;;;4983734;28;19921;-65
2023/04/01 11:44:18;;;;;;;;;;;13.90;99.90;;;;;;4981334;28;19926;-65
2023/04/01 11:47:02;;;;;;;;;;;13.80;99.90;;;;;;4986493;28;20477;-65
2023/04/01 11:49:45;;;;;;;;;;;13.60;99.90;;;;;;4993011;28;20156;-64
2023/04/01 11:52:30;;;;;;;;;;;13.90;99.90;;;;;;4996508;28;19924;-66
2023/04/01 11:54:55;;;;;;;;;;;14.00;99.90;;;;;;5017389;28;19918;-64
2023/04/01 11:57:39;;;;;;;;;;;13.60;99.90;;;;;;5012300;28;19920;-65
2023/04/01 12:00:15;;;;;;;;;;;13.30;99.90;;;;;;5008958;28;19984;-64
2023/04/01 12:02:54;;;;;;;;;;;13.00;99.90;;;;;;5007635;28;21322;-65
2023/04/01 12:05:20;;;;;;;;;;;13.40;99.90;;;;;;5012779;28;19944;-66
2023/04/01 12:07:57;;;;;;;;;;;13.70;99.90;;;;;;5062137;28;20310;-64
2023/04/01 12:10:28;;;;;;;;;;;13.70;99.90;;;;;;5062004;28;19913;-64
2023/04/01 12:13:00;;;;;;;;;;;13.90;99.90;;;;;;5062680;28;19927;-68
2023/04/01 12:15:40;;;;;;;;;;;13.80;99.90;;;;;;5068814;28;19916;-65
2023/04/01 12:18:09;;;;;;;;;;;13.90;99.90;;;;;;5068047;28;19912;-65
2023/04/01 12:20:53;;;;;;;;;;;13.90;99.90;;;;;;5068494;28;19920;-65
2023/04/01 12:23:28;;;;;;;;;;;13.70;99.90;;;;;;5064623;28;19913;-63
2023/04/01 12:26:12;;;;;;;;;;;13.80;99.90;;;;;;5072108;28;19921;-64
2023/04/01 12:28:58;;;;;;;;;;;13.70;99.90;;;;;;5069497;28;19920;-64
2023/04/01 12:31:23;;;;;;;;;;;13.70;99.90;;;;;;5040086;28;19912;-64
2023/04/01 12:33:51;;;;;;;;;;;13.40;99.90;;;;;;5065922;28;19920;-64
2023/04/01 12:36:17;;;;;;;;;;;13.50;99.90;;;;;;5067365;28;20287;-64
2023/04/01 12:38:54;;;;;;;;;;;13.40;99.90;;;;;;5071907;28;19958;-65
2023/04/01 12:41:39;;;;;;;;;;;13.60;99.90;;;;;;5077418;28;19912;-64
2023/04/01 12:44:16;;;;;;;;;;;13.70;99.90;;;;;;5057835;28;20345;-64
2023/04/01 12:46:51;;;;;;;;;;;13.90;99.90;;;;;;5045102;28;19920;-65
2023/04/01 12:49:22;;;;;;;;;;;14.30;99.90;;;;;;5061294;28;19921;-64
2023/04/01 12:52:03;;;;;;;;;;;14.40;99.90;;;;;;5051762;28;20312;-63
2023/04/01 12:54:42;;;;;;;;;;;14.70;99.90;;;;;;5048811;28;19912;-63
2023/04/01 12:57:07;;;;;;;;;;;14.50;99.90;;;;;;5048237;28;19919;-64
2023/04/01 12:59:53;;;;;;;;;;;14.20;99.90;;;;;;5049143;28;20282;-64
2023/04/01 13:02:37;;;;;;;;;;;14.10;99.90;;;;;;5049000;28;20373;-65
2023/04/01 13:05:19;;;;;;;;;;;14.30;99.90;;;;;;5035391;28;20339;-65
2023/04/01 13:07:51;;;;;;;;;;;14.50;99.90;;;;;;5045451;28;20420;-65
2023/04/01 13:10:20;;;;;;;;;;;15.00;99.90;;;;;;5045573;28;19943;-64
2023/04/01 13:13:01;;;;;;;;;;;15.10;99.90;;;;;;5048135;28;19966;-65
2023/04/01 13:15:46;;;;;;;;;;;15.20;99.90;;;;;;5044010;28;19916;-65
2023/04/01 13:18:17;;;;;;;;;;;15.10;99.90;;;;;;5046646;28;19912;-65
2023/04/01 13:20:45;;;;;;;;;;;15.20;99.90;;;;;;5048662;28;20355;-64
2023/04/01 13:23:19;;;;;;;;;;;15.30;99.90;;;;;;5047370;28;20031;-65
2023/04/01 13:25:59;;;;;;;;;;;15.50;99.90;;;;;;5046411;28;19921;-65
2023/04/01 13:28:27;;;;;;;;;;;15.40;99.90;;;;;;5045848;28;20391;-65
2023/04/01 13:31:09;;;;;;;;;;;15.40;99.90;;;;;;5043145;28;19971;-65
2023/04/01 13:33:42;;;;;;;;;;;15.60;99.90;;;;;;5045940;28;19921;-64
2023/04/01 13:36:18;;;;;;;;;;;16.10;99.90;;;;;;5048375;28;19913;-65
2023/04/01 13:39:02;;;;;;;;;;;16.30;99.90;;;;;;5044479;28;19916;-66
2023/04/01 13:41:34;;;;;;;;;;;16.40;99.90;;;;;;5051213;28;19991;-65
2023/04/01 13:44:23;;;;;;;;;;;16.30;99.90;;;;;;5044915;28;19916;-66
2023/04/01 13:47:03;;;;;;;;;;;16.40;99.90;;;;;;5036028;28;20000;-66
2023/04/01 13:49:41;;;;;;;;;;;16.40;99.90;;;;;;5052336;28;19921;-64
2023/04/01 13:52:30;;;;;;;;;;;16.10;99.90;;;;;;5055374;28;19916;-65
2023/04/01 13:54:58;;;;;;;;;;;15.50;99.90;;;;;;5047755;28;19920;-66
2023/04/01 13:57:37;;;;;;;;;;;15.20;99.90;;;;;;5053891;28;19967;-64
2023/04/01 14:00:06;;;;;;;;;;;15.20;99.90;;;;;;5050665;28;19917;-65
2023/04/01 14:02:42;;;;;;;;;;;15.40;99.90;;;;;;5044236;28;19920;-65
2023/04/01 14:05:23;;;;;;;;;;;15.60;99.90;;;;;;5048734;28;19920;-64
2023/04/01 14:08:24;;;;;;;;;;;15.60;99.90;;;;;;5045545;28;19912;-65
2023/04/01 14:11:12;;;;;;;;;;;15.80;99.90;;;;;;5015104;28;20366;-65
2023/04/01 14:13:41;;;;;;;;;;;15.70;99.90;;;;;;5014649;28;20377;-65
2023/04/01 14:16:25;;;;;;;;;;;15.60;99.90;;;;;;5028093;28;19914;-66
2023/04/01 14:19:08;;;;;;;;;;;15.50;99.90;;;;;;5027648;28;19996;-65
2023/04/01 14:21:39;;;;;;;;;;;15.60;99.90;;;;;;5019625;28;19952;-64
2023/04/01 14:24:09;;;;;;;;;;;15.60;99.90;;;;;;5025620;28;20510;-64
2023/04/01 14:27:00;;;;;;;;;;;15.90;99.90;;;;;;5023789;28;19917;-64
2023/04/01 14:29:26;;;;;;;;;;;17.00;99.90;;;;;;5006828;28;19950;-65
2023/04/01 14:31:52;;;;;;;;;;;17.50;99.90;;;;;;5002150;28;19936;-66
2023/04/01 14:34:17;;;;;;;;;;;17.20;99.90;;;;;;5017142;28;19953;-65
2023/04/01 14:37:01;;;;;;;;;;;17.00;99.90;;;;;;5024933;28;19913;-65
2023/04/01 14:39:41;;;;;;;;;;;16.50;99.90;;;;;;5016403;28;20004;-64
2023/04/01 14:42:09;;;;;;;;;;;17.00;99.90;;;;;;5026304;28;19913;-64
2023/04/01 14:44:55;;;;;;;;;;;17.50;99.90;;;;;;5026409;28;19925;-64